Time;durP1;ratioP1;P1;durP2;ratioP2;P2;SDS_P1;SDS_P2;PMS_P1;PMS_P2;Temp;Humidity;BMP_temperature;BMP_pressure;BME280_temperature;BME280_humidity;BME280_pressure;Samples;Min_cycle;Max_cycle;Signal;HPM_P1;HPM_P2
2021/09/11 00:00:40;;;;;;;5.90;4.80;;;20.20;99.90;;;;;;5058026;28;20023;-79
2021/09/11 00:03:06;;;;;;;5.63;4.65;;;20.20;99.90;;;;;;5058748;28;20024;-79
2021/09/11 00:05:31;;;;;;;4.82;4.43;;;20.20;99.90;;;;;;5061266;28;20105;-79
2021/09/11 00:07:57;;;;;;;4.45;4.05;;;20.10;99.90;;;;;;5061515;28;20377;-79
2021/09/11 00:10:22;;;;;;;5.05;4.55;;;20.20;99.90;;;;;;5059975;28;20388;-79
2021/09/11 00:12:48;;;;;;;4.50;4.00;;;20.30;99.90;;;;;;5058962;28;20029;-78
2021/09/11 00:15:17;;;;;;;5.40;4.90;;;20.30;99.90;;;;;;5059889;28;20093;-78
2021/09/11 00:17:43;;;;;;;4.82;4.43;;;20.20;99.90;;;;;;5058051;28;20025;-79
2021/09/11 00:20:10;;;;;;;5.18;4.68;;;20.10;99.90;;;;;;5058347;28;20048;-79
2021/09/11 00:22:36;;;;;;;5.88;4.75;;;20.10;99.90;;;;;;5060039;28;20037;-79
2021/09/11 00:25:03;;;;;;;4.85;4.45;;;20.10;99.90;;;;;;5061385;28;20028;-79
2021/09/11 00:27:29;;;;;;;4.60;4.20;;;20.00;99.90;;;;;;5060855;28;20041;-79
2021/09/11 00:29:54;;;;;;;5.50;4.95;;;20.00;99.90;;;;;;5060549;28;20391;-80
2021/09/11 00:32:20;;;;;;;5.20;4.80;;;19.90;99.90;;;;;;5060663;28;20029;-79
2021/09/11 00:34:46;;;;;;;4.95;4.55;;;19.90;99.90;;;;;;5061019;28;20108;-79
2021/09/11 00:37:11;;;;;;;5.40;4.90;;;19.90;99.90;;;;;;5065315;28;20036;-78
2021/09/11 00:39:37;;;;;;;5.45;5.05;;;19.90;99.90;;;;;;5068203;28;20040;-79
2021/09/11 00:42:02;;;;;;;5.20;4.78;;;19.80;99.90;;;;;;5056310;28;20048;-78
2021/09/11 00:44:28;;;;;;;5.30;4.80;;;19.80;99.90;;;;;;5054053;28;20025;-78
2021/09/11 00:46:54;;;;;;;6.13;4.90;;;19.80;99.90;;;;;;5054721;28;20446;-80
2021/09/11 00:49:20;;;;;;;5.15;4.75;;;19.80;99.90;;;;;;5055507;28;20544;-79
2021/09/11 00:51:47;;;;;;;6.07;5.50;;;19.70;99.90;;;;;;5053787;28;20036;-79
2021/09/11 00:54:13;;;;;;;5.05;4.65;;;19.70;99.90;;;;;;5054584;28;20029;-79
2021/09/11 00:56:38;;;;;;;5.65;5.15;;;19.70;99.90;;;;;;5056548;28;20029;-79
2021/09/11 00:59:04;;;;;;;6.25;5.65;;;19.70;99.90;;;;;;5055126;28;20029;-78
2021/09/11 01:01:31;;;;;;;5.38;4.88;;;19.70;99.90;;;;;;5059699;28;20033;-80
2021/09/11 01:03:56;;;;;;;5.82;5.43;;;19.70;99.90;;;;;;5057909;28;20021;-79
2021/09/11 01:06:24;;;;;;;5.90;5.30;;;19.70;99.90;;;;;;5059201;28;20232;-78
2021/09/11 01:08:51;;;;;;;5.50;4.97;;;19.70;99.90;;;;;;5057287;28;20017;-79
2021/09/11 01:11:16;;;;;;;6.03;5.53;;;19.70;99.90;;;;;;5051624;28;20051;-78
2021/09/11 01:13:42;;;;;;;5.88;5.28;;;19.70;99.90;;;;;;5051490;28;20488;-79
2021/09/11 01:16:08;;;;;;;5.13;4.75;;;19.70;99.90;;;;;;5051276;28;20055;-79
2021/09/11 01:18:34;;;;;;;7.47;5.82;;;19.70;99.90;;;;;;5052300;28;20032;-78
2021/09/11 01:21:04;;;;;;;5.97;5.47;;;19.70;99.90;;;;;;5053354;28;20396;-79
2021/09/11 01:23:30;;;;;;;7.15;5.22;;;19.70;99.90;;;;;;5055016;28;20020;-79
2021/09/11 01:25:56;;;;;;;5.57;4.75;;;19.70;99.90;;;;;;5054197;28;20013;-78
2021/09/11 01:28:22;;;;;;;5.53;5.07;;;19.60;99.90;;;;;;5058961;28;20082;-78
2021/09/11 01:30:48;;;;;;;5.68;5.18;;;19.60;99.90;;;;;;5063774;28;20028;-79
2021/09/11 01:33:14;;;;;;;5.70;5.20;;;19.60;99.90;;;;;;5064813;28;20029;-78
2021/09/11 01:35:40;;;;;;;5.30;4.88;;;19.50;99.90;;;;;;5062379;28;20063;-78
2021/09/11 01:38:07;;;;;;;5.50;5.10;;;19.60;99.90;;;;;;5062984;28;20029;-77
2021/09/11 01:40:33;;;;;;;5.80;5.30;;;19.60;99.90;;;;;;5062481;28;20103;-77
2021/09/11 01:42:58;;;;;;;5.88;5.38;;;19.50;99.90;;;;;;5059123;28;20052;-77
2021/09/11 01:45:24;;;;;;;6.03;5.53;;;19.40;99.90;;;;;;5062101;28;20050;-77
2021/09/11 01:47:51;;;;;;;5.75;5.32;;;19.40;99.90;;;;;;5070533;28;20044;-77
2021/09/11 01:50:19;;;;;;;5.30;4.90;;;19.40;99.90;;;;;;5071133;28;20020;-74
2021/09/11 01:52:45;;;;;;;5.88;5.38;;;19.30;99.90;;;;;;5055099;28;20107;-78
2021/09/11 01:55:13;;;;;;;6.30;5.80;;;19.30;99.90;;;;;;5054737;28;20029;-77
2021/09/11 01:57:39;;;;;;;5.97;5.47;;;19.30;99.90;;;;;;5053574;28;20491;-76
2021/09/11 02:00:10;;;;;;;5.82;5.32;;;19.20;99.90;;;;;;5053530;28;20083;-77
2021/09/11 02:02:36;;;;;;;5.88;5.25;;;19.20;99.90;;;;;;5054186;28;20028;-77
2021/09/11 02:05:10;;;;;;;5.72;5.22;;;19.20;99.90;;;;;;5054365;28;20029;-76
2021/09/11 02:07:35;;;;;;;6.10;5.25;;;19.20;99.90;;;;;;5054730;28;20032;-77
2021/09/11 02:10:03;;;;;;;5.40;5.00;;;19.20;99.90;;;;;;5054327;28;20032;-76
2021/09/11 02:12:28;;;;;;;5.93;5.43;;;19.10;99.90;;;;;;5052864;28;20116;-76
2021/09/11 02:14:54;;;;;;;5.97;5.32;;;19.20;99.90;;;;;;5052849;28;20017;-75
2021/09/11 02:17:19;;;;;;;6.20;5.63;;;19.10;99.90;;;;;;5054055;28;20021;-76
2021/09/11 02:19:46;;;;;;;5.47;5.07;;;19.10;99.90;;;;;;5054111;28;20036;-76
2021/09/11 02:22:11;;;;;;;6.25;5.68;;;19.10;99.90;;;;;;5064958;28;20051;-76
2021/09/11 02:24:38;;;;;;;5.85;5.20;;;19.10;99.90;;;;;;5069757;28;20128;-77
2021/09/11 02:27:04;;;;;;;6.20;5.32;;;19.10;99.90;;;;;;5057167;28;20048;-76
2021/09/11 02:29:30;;;;;;;6.10;5.60;;;19.10;99.90;;;;;;5054708;28;20421;-77
2021/09/11 02:31:56;;;;;;;5.18;4.63;;;19.10;99.90;;;;;;5054859;28;20063;-77
2021/09/11 02:34:22;;;;;;;5.60;5.20;;;19.00;99.90;;;;;;5054081;28;20400;-76
2021/09/11 02:36:48;;;;;;;5.82;5.22;;;19.00;99.90;;;;;;5053882;28;20021;-76
2021/09/11 02:39:14;;;;;;;5.43;4.93;;;19.00;99.90;;;;;;5079819;28;20036;-77
2021/09/11 02:41:39;;;;;;;5.85;5.35;;;19.00;99.90;;;;;;5053728;28;20017;-75
2021/09/11 02:44:05;;;;;;;5.60;5.18;;;18.90;99.90;;;;;;5053892;28;20112;-76
2021/09/11 02:46:31;;;;;;;6.03;5.53;;;18.90;99.90;;;;;;5048124;28;20030;-76
2021/09/11 02:48:58;;;;;;;5.80;5.30;;;19.00;99.90;;;;;;5059573;28;20502;-76
2021/09/11 02:51:24;;;;;;;6.18;5.47;;;19.00;99.90;;;;;;5073436;28;20529;-76
2021/09/11 02:53:50;;;;;;;5.70;5.20;;;19.00;99.90;;;;;;5056047;28;20032;-76
2021/09/11 02:56:15;;;;;;;5.15;4.75;;;18.90;99.90;;;;;;5056018;28;20036;-75
2021/09/11 02:58:41;;;;;;;6.22;5.63;;;19.00;99.90;;;;;;5053763;28;20095;-75
2021/09/11 03:01:06;;;;;;;5.65;5.18;;;18.90;99.90;;;;;;5053499;28;20029;-76
2021/09/11 03:03:32;;;;;;;5.78;5.28;;;18.90;99.90;;;;;;5073367;28;20047;-76
2021/09/11 03:05:58;;;;;;;6.10;5.50;;;18.90;99.90;;;;;;5056093;28;20080;-76
2021/09/11 03:08:23;;;;;;;6.25;5.68;;;18.90;99.90;;;;;;5053084;28;20511;-76
2021/09/11 03:10:49;;;;;;;6.20;5.60;;;18.90;99.90;;;;;;5053038;28;20113;-76
2021/09/11 03:13:14;;;;;;;5.65;5.15;;;18.90;99.90;;;;;;5053162;28;20032;-76
2021/09/11 03:15:40;;;;;;;5.20;4.63;;;18.90;99.90;;;;;;5051681;28;20017;-76
2021/09/11 03:18:06;;;;;;;5.50;5.00;;;18.90;99.90;;;;;;5052879;28;20051;-76
2021/09/11 03:20:31;;;;;;;5.22;4.82;;;18.90;99.90;;;;;;5052519;28;20036;-76
2021/09/11 03:22:57;;;;;;;5.35;4.85;;;18.90;99.90;;;;;;5054220;28;20033;-77
2021/09/11 03:25:22;;;;;;;5.47;4.97;;;18.90;99.90;;;;;;5052935;28;20473;-76
2021/09/11 03:27:48;;;;;;;5.72;5.22;;;18.90;99.90;;;;;;5056015;28;20048;-75
2021/09/11 03:30:14;;;;;;;5.20;4.38;;;18.90;99.90;;;;;;5053452;28;20020;-76
2021/09/11 03:32:40;;;;;;;6.10;5.55;;;18.90;99.90;;;;;;5072830;28;20503;-76
2021/09/11 03:35:06;;;;;;;6.00;5.50;;;19.00;99.90;;;;;;5062725;28;20060;-76
2021/09/11 03:37:32;;;;;;;7.60;5.20;;;19.00;99.90;;;;;;5057739;28;20029;-75
2021/09/11 03:39:58;;;;;;;5.57;5.07;;;18.90;99.90;;;;;;5072221;28;20047;-76
2021/09/11 03:42:24;;;;;;;5.85;5.03;;;18.90;99.90;;;;;;5072619;28;20468;-76
2021/09/11 03:44:49;;;;;;;5.03;4.63;;;18.90;99.90;;;;;;5072378;28;20024;-76
2021/09/11 03:47:15;;;;;;;5.30;4.90;;;18.90;99.90;;;;;;5063762;28;20128;-76
2021/09/11 03:49:40;;;;;;;5.20;4.80;;;18.80;99.90;;;;;;5051957;28;20074;-76
2021/09/11 03:52:06;;;;;;;5.60;5.10;;;18.90;99.90;;;;;;5052110;28;20024;-76
2021/09/11 03:54:32;;;;;;;5.88;5.38;;;18.90;99.90;;;;;;5052126;28;20386;-76
2021/09/11 03:56:57;;;;;;;5.53;5.07;;;18.90;99.90;;;;;;5051415;28;20059;-76
2021/09/11 03:59:23;;;;;;;9.13;5.43;;;18.80;99.90;;;;;;5053534;28;20040;-77
2021/09/11 04:01:48;;;;;;;5.60;5.10;;;18.80;99.90;;;;;;5060336;28;20013;-76
2021/09/11 04:04:14;;;;;;;5.65;5.05;;;18.80;99.90;;;;;;5080166;28;20012;-75
2021/09/11 04:06:40;;;;;;;5.70;5.20;;;18.70;99.90;;;;;;5096925;28;20028;-76
2021/09/11 04:09:05;;;;;;;5.85;5.30;;;18.70;99.90;;;;;;5071046;28;20033;-75
2021/09/11 04:11:31;;;;;;;5.13;4.63;;;18.70;99.90;;;;;;5069050;28;20024;-75
2021/09/11 04:13:56;;;;;;;5.80;5.03;;;18.70;99.90;;;;;;5070390;28;20371;-76
2021/09/11 04:16:22;;;;;;;5.95;5.32;;;18.70;99.90;;;;;;5061640;28;20107;-77
2021/09/11 04:18:47;;;;;;;6.00;5.13;;;18.80;99.90;;;;;;5052483;28;20024;-76
2021/09/11 04:21:13;;;;;;;5.78;4.97;;;18.70;99.90;;;;;;5052005;28;20028;-76
2021/09/11 04:23:39;;;;;;;5.38;4.88;;;18.70;99.90;;;;;;5051940;28;20457;-77
2021/09/11 04:26:04;;;;;;;5.28;4.78;;;18.80;99.90;;;;;;5052085;28;20025;-76
2021/09/11 04:28:30;;;;;;;5.28;4.88;;;18.70;99.90;;;;;;5052249;28;20033;-75
2021/09/11 04:30:55;;;;;;;5.15;4.40;;;18.80;99.90;;;;;;5050323;28;20045;-76
2021/09/11 04:33:21;;;;;;;5.72;5.15;;;18.70;99.90;;;;;;5052259;28;20029;-76
2021/09/11 04:35:46;;;;;;;6.68;5.65;;;18.70;99.90;;;;;;5050575;28;20056;-76
2021/09/11 04:38:12;;;;;;;5.10;4.70;;;18.70;99.90;;;;;;5050883;28;20021;-76
2021/09/11 04:40:37;;;;;;;6.47;5.40;;;18.70;99.90;;;;;;5050396;28;20017;-76
2021/09/11 04:43:05;;;;;;;5.25;4.80;;;18.70;99.90;;;;;;5051916;28;20025;-76
2021/09/11 04:45:30;;;;;;;5.10;4.60;;;18.70;99.90;;;;;;5050260;28;20025;-77
2021/09/11 04:47:56;;;;;;;5.43;4.93;;;18.70;99.90;;;;;;5051627;28;20431;-77
2021/09/11 04:50:22;;;;;;;7.10;5.40;;;18.70;99.90;;;;;;5050440;28;20465;-76
2021/09/11 04:52:47;;;;;;;4.60;4.20;;;18.70;99.90;;;;;;5051893;28;20430;-76
2021/09/11 04:55:14;;;;;;;4.90;4.40;;;18.70;99.90;;;;;;5054333;28;20021;-76
2021/09/11 04:57:39;;;;;;;3.97;3.65;;;18.70;99.90;;;;;;5057656;28;20104;-76
2021/09/11 05:00:06;;;;;;;3.97;3.65;;;18.70;99.90;;;;;;5070319;28;20056;-75
2021/09/11 05:02:32;;;;;;;4.63;4.22;;;18.70;99.90;;;;;;5076606;28;20116;-76
2021/09/11 05:04:57;;;;;;;4.63;4.22;;;18.70;99.90;;;;;;5064352;28;20432;-77
2021/09/11 05:07:24;;;;;;;3.97;3.58;;;18.70;99.90;;;;;;5059128;28;20021;-76
2021/09/11 05:09:50;;;;;;;6.55;4.10;;;18.60;99.90;;;;;;5054548;28;20477;-76
2021/09/11 05:12:16;;;;;;;5.00;4.60;;;18.50;99.90;;;;;;5054368;28;20037;-76
2021/09/11 05:14:41;;;;;;;5.40;3.38;;;18.50;99.90;;;;;;5055583;28;20033;-77
2021/09/11 05:17:07;;;;;;;4.80;4.40;;;18.50;99.90;;;;;;5055431;28;20104;-77
2021/09/11 05:19:33;;;;;;;5.72;4.60;;;18.40;99.90;;;;;;5054329;28;20029;-76
2021/09/11 05:21:58;;;;;;;5.97;4.25;;;18.40;99.90;;;;;;5054972;28;20083;-76
2021/09/11 05:24:24;;;;;;;4.38;3.97;;;18.30;99.90;;;;;;5055303;28;20021;-75
2021/09/11 05:26:49;;;;;;;4.47;4.00;;;18.20;99.90;;;;;;5055438;28;20033;-76
2021/09/11 05:29:15;;;;;;;5.68;5.18;;;18.10;99.90;;;;;;5053577;28;20466;-77
2021/09/11 05:31:40;;;;;;;9.13;8.30;;;18.00;99.90;;;;;;5055026;28;20396;-76
2021/09/11 05:34:06;;;;;;;5.30;4.80;;;18.10;99.90;;;;;;5054931;28;20025;-77
2021/09/11 05:36:33;;;;;;;6.97;6.35;;;18.10;99.90;;;;;;5055610;28;20028;-76
2021/09/11 05:38:58;;;;;;;4.60;4.20;;;18.10;99.90;;;;;;5054377;28;20057;-77
2021/09/11 05:41:24;;;;;;;5.25;4.85;;;18.20;99.90;;;;;;5054617;28;20063;-76
2021/09/11 05:43:49;;;;;;;5.43;4.70;;;18.20;99.90;;;;;;5055420;28;20542;-77
2021/09/11 05:46:15;;;;;;;4.50;4.13;;;18.30;99.90;;;;;;5054995;28;20029;-76
2021/09/11 05:48:41;;;;;;;5.15;4.75;;;18.30;99.90;;;;;;5055060;28;20041;-76
2021/09/11 05:51:07;;;;;;;5.38;4.95;;;18.30;99.90;;;;;;5055135;28;20027;-77
2021/09/11 05:53:32;;;;;;;8.15;4.90;;;18.40;99.90;;;;;;5053750;28;20025;-76
2021/09/11 05:55:58;;;;;;;5.18;4.68;;;18.40;99.90;;;;;;5049619;28;20469;-76
2021/09/11 05:58:24;;;;;;;5.47;4.97;;;18.50;99.90;;;;;;5063147;28;20028;-77
2021/09/11 06:00:50;;;;;;;7.38;5.20;;;18.60;99.90;;;;;;5073922;28;20017;-76
2021/09/11 06:03:15;;;;;;;5.63;4.57;;;18.70;99.90;;;;;;5074944;28;20391;-76
2021/09/11 06:05:41;;;;;;;5.20;4.80;;;18.80;99.90;;;;;;5074614;28;20459;-76
2021/09/11 06:08:06;;;;;;;6.07;5.60;;;18.80;99.90;;;;;;5074747;28;20033;-76
2021/09/11 06:10:32;;;;;;;5.65;5.20;;;18.90;99.90;;;;;;5075328;28;20028;-77
2021/09/11 06:12:59;;;;;;;6.00;5.45;;;18.80;99.90;;;;;;5073841;28;20028;-77
2021/09/11 06:15:25;;;;;;;6.60;5.70;;;18.80;99.90;;;;;;5074856;28;20024;-77
2021/09/11 06:17:51;;;;;;;7.32;5.20;;;18.80;99.90;;;;;;5074878;28;20059;-76
2021/09/11 06:20:16;;;;;;;6.13;5.63;;;18.70;99.90;;;;;;5073372;28;20078;-76
2021/09/11 06:22:42;;;;;;;5.82;5.32;;;18.60;99.90;;;;;;5075181;28;20104;-77
2021/09/11 06:25:08;;;;;;;6.57;5.70;;;18.70;99.90;;;;;;5074513;28;20495;-77
2021/09/11 06:27:34;;;;;;;6.07;5.57;;;18.90;99.90;;;;;;5074565;28;20029;-77
2021/09/11 06:29:59;;;;;;;6.03;5.53;;;19.10;99.90;;;;;;5072786;28;20027;-76
2021/09/11 06:32:25;;;;;;;5.50;5.00;;;19.20;99.90;;;;;;5073762;28;20422;-77
2021/09/11 06:34:51;;;;;;;5.22;4.72;;;19.20;99.90;;;;;;5075524;28;20459;-76
2021/09/11 06:37:16;;;;;;;6.50;5.45;;;19.30;99.90;;;;;;5074984;28;20116;-77
2021/09/11 06:39:42;;;;;;;5.60;5.10;;;19.30;99.90;;;;;;5074231;28;20032;-76
2021/09/11 06:42:08;;;;;;;5.65;5.15;;;19.10;99.90;;;;;;5074123;28;20055;-76
2021/09/11 06:44:33;;;;;;;5.25;4.85;;;19.10;99.90;;;;;;5073620;28;20047;-76
2021/09/11 06:46:59;;;;;;;5.57;4.70;;;19.10;99.90;;;;;;5074876;28;20480;-77
2021/09/11 06:49:25;;;;;;;4.93;4.53;;;19.10;99.90;;;;;;5056504;28;20025;-76
2021/09/11 06:51:50;;;;;;;4.88;4.43;;;19.20;99.90;;;;;;5053596;28;20025;-76
2021/09/11 06:54:16;;;;;;;5.60;5.10;;;19.20;99.90;;;;;;5054428;28;20025;-77
2021/09/11 06:56:42;;;;;;;5.90;5.28;;;19.30;99.90;;;;;;5057107;28;20045;-77
2021/09/11 06:59:07;;;;;;;4.32;3.92;;;19.40;99.90;;;;;;5065814;28;20030;-77
2021/09/11 07:01:33;;;;;;;4.85;4.43;;;19.50;99.90;;;;;;5073047;28;20388;-77
2021/09/11 07:03:58;;;;;;;4.80;4.40;;;19.60;99.90;;;;;;5072953;28;20020;-76
2021/09/11 07:06:24;;;;;;;4.35;3.95;;;19.70;99.90;;;;;;5073844;28;20024;-77
2021/09/11 07:08:51;;;;;;;3.50;3.20;;;19.90;99.90;;;;;;5072703;28;20024;-76
2021/09/11 07:11:16;;;;;;;6.22;3.88;;;20.10;99.90;;;;;;5074691;28;20032;-77
2021/09/11 07:13:42;;;;;;;4.10;3.60;;;20.30;99.90;;;;;;5074280;28;20024;-76
2021/09/11 07:16:08;;;;;;;3.95;3.65;;;20.30;99.90;;;;;;5071459;28;20016;-76
2021/09/11 07:18:34;;;;;;;5.88;3.53;;;20.40;99.90;;;;;;5073713;28;20032;-76
2021/09/11 07:21:00;;;;;;;3.70;3.40;;;20.30;99.90;;;;;;5072290;28;20056;-77
2021/09/11 07:23:26;;;;;;;4.63;4.18;;;20.30;99.90;;;;;;5073355;28;20063;-76
2021/09/11 07:25:52;;;;;;;3.33;3.03;;;20.30;99.90;;;;;;5072334;28;20048;-76
2021/09/11 07:28:17;;;;;;;3.33;2.88;;;20.30;99.90;;;;;;5071389;28;20059;-77
2021/09/11 07:30:43;;;;;;;3.70;3.03;;;20.30;99.90;;;;;;5073189;28;20021;-77
2021/09/11 07:33:09;;;;;;;2.92;2.58;;;20.40;99.90;;;;;;5071617;28;20505;-76
2021/09/11 07:35:34;;;;;;;2.83;2.58;;;20.40;99.90;;;;;;5073425;28;20437;-76
2021/09/11 07:38:00;;;;;;;3.25;2.17;;;20.50;99.90;;;;;;5071932;28;20024;-77
2021/09/11 07:40:25;;;;;;;2.97;2.47;;;20.90;99.90;;;;;;5071763;28;20488;-77
2021/09/11 07:42:51;;;;;;;4.35;3.10;;;21.10;99.90;;;;;;5071757;28;20024;-77
2021/09/11 07:45:18;;;;;;;4.20;3.47;;;21.60;99.90;;;;;;5067911;28;20036;-76
2021/09/11 07:47:44;;;;;;;3.42;3.13;;;21.70;99.90;;;;;;5051336;28;20021;-77
2021/09/11 07:50:10;;;;;;;3.97;2.97;;;22.10;99.90;;;;;;5052523;28;20021;-77
2021/09/11 07:52:36;;;;;;;3.60;3.30;;;22.20;99.90;;;;;;5052715;28;20087;-77
2021/09/11 07:55:03;;;;;;;4.57;3.40;;;22.30;99.90;;;;;;5052480;28;20036;-77
2021/09/11 07:57:28;;;;;;;5.57;3.58;;;22.20;99.90;;;;;;5054406;28;20025;-76
2021/09/11 07:59:55;;;;;;;3.55;2.90;;;22.40;99.90;;;;;;5066323;28;20032;-76
2021/09/11 08:02:21;;;;;;;5.68;3.50;;;22.20;99.90;;;;;;5071662;28;20476;-76
2021/09/11 08:04:46;;;;;;;3.92;3.40;;;22.20;99.90;;;;;;5072026;28;20124;-77
2021/09/11 08:07:12;;;;;;;3.20;2.95;;;22.60;99.90;;;;;;5071405;28;20025;-78
2021/09/11 08:09:37;;;;;;;3.65;3.20;;;22.50;99.90;;;;;;5072330;28;20052;-77
2021/09/11 08:12:03;;;;;;;3.17;2.97;;;22.20;99.90;;;;;;5071769;28;20052;-76
2021/09/11 08:14:29;;;;;;;3.47;3.17;;;22.10;99.90;;;;;;5072414;28;20124;-77
2021/09/11 08:16:54;;;;;;;3.08;2.88;;;22.20;99.90;;;;;;5072413;28;20055;-77
2021/09/11 08:19:20;;;;;;;4.20;2.33;;;22.30;99.90;;;;;;5072491;28;20027;-77
2021/09/11 08:21:45;;;;;;;3.65;2.60;;;22.20;99.90;;;;;;5073122;28;20033;-77
2021/09/11 08:24:11;;;;;;;2.67;2.45;;;22.00;99.90;;;;;;5072033;28;20491;-76
2021/09/11 08:26:36;;;;;;;3.72;2.85;;;21.90;99.90;;;;;;5076354;28;20033;-75
2021/09/11 08:29:03;;;;;;;4.20;3.80;;;21.70;99.90;;;;;;5076632;28;20048;-76
2021/09/11 08:31:29;;;;;;;3.60;3.20;;;22.10;99.90;;;;;;5074595;28;20025;-75
2021/09/11 08:33:55;;;;;;;4.22;3.63;;;22.30;99.90;;;;;;5076985;28;20025;-76
2021/09/11 08:36:22;;;;;;;4.35;3.20;;;22.50;99.90;;;;;;5081328;28;20056;-76
2021/09/11 08:38:48;;;;;;;4.05;3.38;;;22.70;99.90;;;;;;5075991;28;20025;-76
2021/09/11 08:41:14;;;;;;;3.95;3.58;;;22.70;99.90;;;;;;5076426;28;20024;-76
2021/09/11 08:43:40;;;;;;;6.18;3.88;;;22.70;99.90;;;;;;5076811;28;20035;-77
2021/09/11 08:46:05;;;;;;;3.10;2.90;;;22.80;99.90;;;;;;5076300;28;20025;-75
2021/09/11 08:48:31;;;;;;;3.20;2.90;;;22.80;99.90;;;;;;5067265;28;20427;-77
2021/09/11 08:50:57;;;;;;;2.78;2.58;;;22.80;99.90;;;;;;5056059;28;20108;-77
2021/09/11 08:53:23;;;;;;;3.22;2.92;;;22.60;99.90;;;;;;5056668;28;20025;-77
2021/09/11 08:55:49;;;;;;;3.78;3.15;;;22.40;99.90;;;;;;5052018;28;20037;-76
2021/09/11 08:58:19;;;;;;;3.53;2.90;;;21.80;99.90;;;;;;5061766;28;20025;-76
2021/09/11 09:00:48;;;;;;;3.25;3.00;;;21.80;99.90;;;;;;5079421;28;20023;-77
2021/09/11 09:03:35;;;;;;;2.90;2.65;;;21.70;99.90;;;;;;5075319;28;20097;-76
2021/09/11 09:06:25;;;;;;;3.15;2.85;;;21.40;99.90;;;;;;5074904;28;20369;-76
2021/09/11 09:09:12;;;;;;;3.05;2.35;;;21.30;99.90;;;;;;5075204;28;20016;-77
2021/09/11 09:11:43;;;;;;;4.38;2.95;;;21.30;99.90;;;;;;5074646;28;20036;-77
2021/09/11 09:14:11;;;;;;;4.22;2.28;;;21.50;99.90;;;;;;5077621;28;20050;-77
2021/09/11 09:16:45;;;;;;;2.13;1.85;;;21.70;99.90;;;;;;5076710;28;20060;-76
2021/09/11 09:19:11;;;;;;;2.20;2.00;;;22.20;99.90;;;;;;5075876;28;20017;-76
2021/09/11 09:21:38;;;;;;;2.38;2.17;;;22.40;99.90;;;;;;5075730;28;20020;-76
2021/09/11 09:24:06;;;;;;;2.78;2.58;;;22.60;99.90;;;;;;5073477;28;20020;-76
2021/09/11 09:26:51;;;;;;;2.67;2.30;;;22.50;99.90;;;;;;5075693;28;20017;-77
2021/09/11 09:29:18;;;;;;;2.00;1.80;;;22.50;99.90;;;;;;5075728;28;20472;-76
2021/09/11 09:31:45;;;;;;;3.58;3.28;;;22.90;99.90;;;;;;5074792;28;20071;-76
2021/09/11 09:34:26;;;;;;;3.25;2.00;;;23.60;99.90;;;;;;5056797;28;20029;-76
2021/09/11 09:36:55;;;;;;;3.53;3.00;;;23.80;99.90;;;;;;5055195;28;20025;-76
2021/09/11 09:39:21;;;;;;;3.10;2.03;;;23.80;99.90;;;;;;5055247;28;20040;-77
2021/09/11 09:41:52;;;;;;;4.18;2.70;;;23.70;99.90;;;;;;5055307;28;20037;-76
2021/09/11 09:44:20;;;;;;;5.78;2.33;;;23.80;99.90;;;;;;5057637;28;20032;-77
2021/09/11 09:46:47;;;;;;;1.98;1.83;;;24.00;99.90;;;;;;5056186;28;20017;-76
2021/09/11 09:49:24;;;;;;;2.78;2.45;;;24.40;99.90;;;;;;5055497;28;20031;-76
2021/09/11 09:51:51;;;;;;;2.08;1.90;;;24.30;99.90;;;;;;5056144;28;20024;-76
2021/09/11 09:54:18;;;;;;;4.18;2.22;;;24.30;99.90;;;;;;5054990;28;20021;-76
2021/09/11 09:56:44;;;;;;;2.72;1.98;;;24.30;99.90;;;;;;5058911;28;20058;-77
2021/09/11 09:59:11;;;;;;;2.05;1.80;;;24.40;99.90;;;;;;5065270;28;20024;-76
2021/09/11 10:01:37;;;;;;;2.35;2.15;;;24.10;99.90;;;;;;5075504;28;20112;-76
2021/09/11 10:04:18;;;;;;;1.98;1.88;;;23.90;99.90;;;;;;5055500;28;20045;-77
2021/09/11 10:06:48;;;;;;;3.50;2.05;;;24.50;99.90;;;;;;5054987;28;20371;-77
2021/09/11 10:09:15;;;;;;;2.17;2.00;;;25.00;99.90;;;;;;5062346;28;20115;-76
2021/09/11 10:11:49;;;;;;;2.65;2.35;;;25.00;99.90;;;;;;5067903;28;20521;-76
2021/09/11 10:14:16;;;;;;;2.38;1.70;;;25.00;99.90;;;;;;5068408;28;20104;-76
2021/09/11 10:16:43;;;;;;;3.28;2.25;;;25.40;99.90;;;;;;5055271;28;20025;-77
2021/09/11 10:19:17;;;;;;;2.25;2.03;;;24.70;99.90;;;;;;5055666;28;20040;-76
2021/09/11 10:21:43;;;;;;;2.40;1.70;;;24.70;99.90;;;;;;5056673;28;20028;-76
2021/09/11 10:24:13;;;;;;;2.58;1.90;;;25.10;99.90;;;;;;5054556;28;20021;-76
2021/09/11 10:26:51;;;;;;;2.38;2.15;;;25.30;99.90;;;;;;5058297;28;20107;-77
2021/09/11 10:29:33;;;;;;;2.65;1.77;;;24.70;99.90;;;;;;5064628;28;20112;-76
2021/09/11 10:32:11;;;;;;;3.13;2.83;;;24.10;99.90;;;;;;5055869;28;20524;-75
2021/09/11 10:34:52;;;;;;;11.35;2.00;;;24.30;99.90;;;;;;5035058;28;20087;-75
2021/09/11 10:37:28;;;;;;;2.10;1.90;;;24.50;99.90;;;;;;5045332;28;20357;-75
2021/09/11 10:40:29;;;;;;;2.97;2.03;;;24.60;99.90;;;;;;5052260;28;20063;-75
2021/09/11 10:43:01;;;;;;;2.55;2.05;;;24.50;99.90;;;;;;5052733;28;20365;-76
2021/09/11 10:45:58;;;;;;;2.90;2.03;;;24.50;99.90;;;;;;5052708;28;20090;-76
2021/09/11 10:49:02;;;;;;;3.45;2.10;;;24.10;99.90;;;;;;5050445;28;20021;-77
2021/09/11 10:51:29;;;;;;;3.08;2.20;;;24.10;99.90;;;;;;4991909;28;20148;-76
2021/09/11 10:53:58;;;;;;;5.32;2.35;;;23.70;99.90;;;;;;4977184;28;20089;-75
2021/09/11 10:56:28;;;;;;;1.83;1.70;;;23.40;99.90;;;;;;5023669;28;20037;-76
2021/09/11 10:59:30;;;;;;;2.33;1.80;;;23.40;99.90;;;;;;5053634;28;20033;-74
2021/09/11 11:02:02;;;;;;;1.90;1.70;;;23.80;99.90;;;;;;5053724;28;20404;-76
2021/09/11 11:04:30;;;;;;;3.42;1.80;;;24.00;99.90;;;;;;5055591;28;20400;-75
2021/09/11 11:06:58;;;;;;;2.38;1.70;;;24.20;99.90;;;;;;5052755;28;20484;-76
2021/09/11 11:09:24;;;;;;;2.25;1.60;;;24.20;99.90;;;;;;5054358;28;20032;-75
2021/09/11 11:11:53;;;;;;;3.90;1.88;;;24.40;99.90;;;;;;5053723;28;20029;-76
2021/09/11 11:14:19;;;;;;;2.53;2.30;;;24.40;99.90;;;;;;5053297;28;20028;-77
2021/09/11 11:16:52;;;;;;;2.22;2.03;;;23.80;99.90;;;;;;5054042;28;20025;-76
2021/09/11 11:19:26;;;;;;;2.28;2.03;;;23.10;99.90;;;;;;5047245;28;20492;-77
2021/09/11 11:22:00;;;;;;;2.53;2.30;;;22.50;99.90;;;;;;5063382;28;20106;-73
2021/09/11 11:24:29;;;;;;;3.05;2.08;;;22.10;99.90;;;;;;5072766;28;20100;-76
2021/09/11 11:26:57;;;;;;;2.65;2.45;;;21.90;99.90;;;;;;5067927;28;20035;-76
2021/09/11 11:29:25;;;;;;;5.85;3.22;;;21.80;99.90;;;;;;5071427;28;20078;-76
2021/09/11 11:31:50;;;;;;;4.35;3.40;;;21.60;99.90;;;;;;5071189;28;20082;-76
2021/09/11 11:34:17;;;;;;;4.50;3.03;;;21.00;99.90;;;;;;5053202;28;20025;-75
2021/09/11 11:36:54;;;;;;;3.13;2.85;;;20.80;99.90;;;;;;5044590;28;20032;-76
2021/09/11 11:39:29;;;;;;;4.80;3.38;;;20.70;99.90;;;;;;5041203;28;20389;-76
2021/09/11 11:42:07;;;;;;;3.95;3.50;;;20.60;99.90;;;;;;5046454;28;20496;-75
2021/09/11 11:44:39;;;;;;;5.95;4.15;;;20.50;99.90;;;;;;5051811;28;20427;-75
2021/09/11 11:47:11;;;;;;;5.13;3.50;;;20.60;99.90;;;;;;5053039;28;20068;-77
2021/09/11 11:49:39;;;;;;;5.47;3.63;;;20.90;99.90;;;;;;5051992;28;20108;-75
2021/09/11 11:52:07;;;;;;;3.58;2.97;;;21.20;99.90;;;;;;5051299;28;20128;-75
2021/09/11 11:54:34;;;;;;;4.13;3.78;;;21.30;99.90;;;;;;5050995;28;20025;-75
2021/09/11 11:57:08;;;;;;;10.43;4.15;;;21.40;99.90;;;;;;5052425;28;20029;-75
2021/09/11 11:59:34;;;;;;;4.63;3.75;;;21.60;99.90;;;;;;5053852;28;20032;-75
2021/09/11 12:02:15;;;;;;;5.95;3.75;;;21.50;99.90;;;;;;5052874;28;20025;-76
2021/09/11 12:04:40;;;;;;;6.38;3.00;;;21.60;99.90;;;;;;5056212;28;20082;-76
2021/09/11 12:07:07;;;;;;;4.25;2.55;;;22.00;99.90;;;;;;5057297;28;20059;-77
2021/09/11 12:09:32;;;;;;;4.72;2.83;;;22.30;99.90;;;;;;5054779;28;20473;-75
2021/09/11 12:12:12;;;;;;;3.95;2.75;;;22.50;99.90;;;;;;5053902;28;20032;-76
2021/09/11 12:14:37;;;;;;;4.68;2.53;;;22.50;99.90;;;;;;5051976;28;20025;-74
2021/09/11 12:17:03;;;;;;;4.03;2.80;;;22.90;99.90;;;;;;5049117;28;20040;-77
2021/09/11 12:19:32;;;;;;;4.78;2.35;;;23.20;99.90;;;;;;5053332;28;20068;-75
2021/09/11 12:21:58;;;;;;;4.63;2.03;;;23.50;99.90;;;;;;5053376;28;20029;-74
2021/09/11 12:24:28;;;;;;;5.35;1.90;;;23.40;99.90;;;;;;5053776;28;20146;-78
2021/09/11 12:27:11;;;;;;;2.13;1.42;;;23.20;99.90;;;;;;5051868;28;20032;-76
2021/09/11 12:29:37;;;;;;;4.13;1.58;;;23.10;99.90;;;;;;5053050;28;20227;-77
2021/09/11 12:32:05;;;;;;;2.92;1.60;;;23.10;99.90;;;;;;5053980;28;20111;-77
2021/09/11 12:34:42;;;;;;;1.63;1.52;;;23.20;99.90;;;;;;5053610;28;20051;-77
2021/09/11 12:37:08;;;;;;;1.83;1.60;;;23.20;99.90;;;;;;5054823;28;20484;-76
2021/09/11 12:39:36;;;;;;;6.80;2.33;;;23.20;99.90;;;;;;5053635;28;20033;-77
2021/09/11 12:42:13;;;;;;;2.70;1.40;;;23.50;99.90;;;;;;5054215;28;20021;-76
2021/09/11 12:44:39;;;;;;;10.98;2.28;;;23.50;99.90;;;;;;5052395;28;20025;-77
2021/09/11 12:47:10;;;;;;;1.80;1.33;;;23.50;99.90;;;;;;5086660;28;20020;-77